createdAt,value
2023-01-13T00:00:10.184Z,7.99
2023-01-13T00:01:14.020Z,7.98
2023-01-13T00:02:15.531Z,7.94
2023-01-13T00:03:17.043Z,7.96
2023-01-13T00:04:18.509Z,7.97
2023-01-13T00:05:22.601Z,7.98
2023-01-13T00:06:29.299Z,7.98
2023-01-13T00:07:30.918Z,8.03
2023-01-13T00:08:32.668Z,8.01
2023-01-13T00:09:34.209Z,8.00
2023-01-13T00:10:36.054Z,8.03
2023-01-13T00:11:37.582Z,8.01
2023-01-13T00:12:40.762Z,8.04
2023-01-13T00:13:42.344Z,8.01
2023-01-13T00:14:43.960Z,8.08
2023-01-13T00:15:55.904Z,8.09
2023-01-13T00:16:57.456Z,8.05
2023-01-13T00:17:59.251Z,8.06
2023-01-13T00:19:00.742Z,8.04
2023-01-13T00:20:02.390Z,8.06
2023-01-13T00:21:17.692Z,8.04
2023-01-13T00:22:19.230Z,8.05
2023-01-13T00:23:20.685Z,8.07
2023-01-13T00:24:22.248Z,8.12
2023-01-13T00:25:23.728Z,8.08
2023-01-13T00:26:27.602Z,8.04
2023-01-13T00:27:29.278Z,7.97
2023-01-13T00:28:30.807Z,7.92
2023-01-13T00:29:32.305Z,8.07
2023-01-13T00:30:34.165Z,8.08
2023-01-13T00:31:35.806Z,8.12
2023-01-13T00:32:37.819Z,8.08
2023-01-13T00:33:39.540Z,8.04
2023-01-13T00:34:41.055Z,8.05
2023-01-13T00:35:42.548Z,8.05
2023-01-13T00:36:44.092Z,8.05
2023-01-13T00:37:45.553Z,8.08
2023-01-13T00:38:47.836Z,8.16
2023-01-13T00:39:51.643Z,8.12
2023-01-13T00:41:01.067Z,8.03
2023-01-13T00:42:21.466Z,8.03
2023-01-13T00:43:22.954Z,8.03
2023-01-13T00:44:24.442Z,8.12
2023-01-13T00:45:25.924Z,8.08
2023-01-13T00:46:27.409Z,8.03
2023-01-13T00:47:28.917Z,7.98
2023-01-13T00:48:30.947Z,7.93
2023-01-13T00:49:32.371Z,8.04
2023-01-13T00:50:33.854Z,7.99
2023-01-13T00:51:35.311Z,8.00
2023-01-13T00:52:36.772Z,8.07
2023-01-13T00:53:43.117Z,8.02
2023-01-13T00:54:44.689Z,8.03
2023-01-13T00:55:46.173Z,8.06
2023-01-13T00:56:47.654Z,8.13
2023-01-13T00:57:49.119Z,8.18
2023-01-13T00:58:51.980Z,8.14
2023-01-13T00:59:53.427Z,8.16
2023-01-13T01:00:55.023Z,8.15
2023-01-13T01:01:56.924Z,8.18
2023-01-13T01:02:58.905Z,8.13
2023-01-13T01:04:00.374Z,8.18
2023-01-13T01:05:01.896Z,8.15
2023-01-13T01:06:07.410Z,8.15
2023-01-13T01:07:08.950Z,8.13
2023-01-13T01:08:10.429Z,8.11
2023-01-13T01:09:14.911Z,8.18
2023-01-13T01:10:16.800Z,8.14
2023-01-13T01:11:21.430Z,8.13
2023-01-13T01:12:22.904Z,8.23
2023-01-13T01:13:24.359Z,8.33
2023-01-13T01:14:27.165Z,8.34
2023-01-13T01:15:28.657Z,8.30
2023-01-13T01:16:32.117Z,8.27
2023-01-13T01:17:33.795Z,8.29
2023-01-13T01:18:37.134Z,8.35
2023-01-13T01:19:38.822Z,8.34
2023-01-13T01:20:40.323Z,8.30
2023-01-13T01:21:41.870Z,8.36
2023-01-13T01:22:43.399Z,8.33
2023-01-13T01:23:45.457Z,8.38
2023-01-13T01:24:47.461Z,8.33
2023-01-13T01:25:48.966Z,8.24
2023-01-13T01:26:50.439Z,8.20
2023-01-13T01:27:52.067Z,8.14
2023-01-13T01:28:54.316Z,8.22
2023-01-13T01:29:55.847Z,8.24
2023-01-13T01:31:00.239Z,8.19
2023-01-13T01:32:01.719Z,8.16
2023-01-13T01:33:05.189Z,8.15
2023-01-13T01:34:06.645Z,8.18
2023-01-13T01:35:08.476Z,8.14
2023-01-13T01:36:12.217Z,8.21
2023-01-13T01:37:13.691Z,8.28
2023-01-13T01:38:15.173Z,8.32
2023-01-13T01:39:16.695Z,8.27
2023-01-13T01:40:18.237Z,8.31
2023-01-13T01:41:22.700Z,8.34
2023-01-13T01:42:42.631Z,8.31
2023-01-13T01:43:59.181Z,8.34
2023-01-13T01:45:21.487Z,8.43
2023-01-13T01:46:23.007Z,8.35
2023-01-13T01:47:25.477Z,8.38
2023-01-13T01:48:30.827Z,8.36
2023-01-13T01:49:35.278Z,8.36
2023-01-13T01:50:37.274Z,8.35
2023-01-13T01:51:42.309Z,8.39
2023-01-13T01:52:49.322Z,8.44
2023-01-13T01:53:51.989Z,8.40
2023-01-13T01:55:02.413Z,8.44
2023-01-13T01:56:04.014Z,8.40
2023-01-13T01:57:07.615Z,8.51
2023-01-13T01:58:15.619Z,8.42
2023-01-13T01:59:17.262Z,8.41
2023-01-13T02:00:19.120Z,8.41
2023-01-13T02:01:21.041Z,8.57
2023-01-13T02:02:22.665Z,8.58
2023-01-13T02:03:24.224Z,8.58
2023-01-13T02:04:33.784Z,8.57
2023-01-13T02:05:35.721Z,8.50
2023-01-13T02:06:38.145Z,8.50
2023-01-13T02:07:43.030Z,8.58
2023-01-13T02:08:44.609Z,8.49
2023-01-13T02:09:46.371Z,8.55
2023-01-13T02:10:53.483Z,8.65
2023-01-13T02:12:13.375Z,8.71
2023-01-13T02:13:14.919Z,8.69
2023-01-13T02:14:17.176Z,8.62
2023-01-13T02:15:22.577Z,8.62
2023-01-13T02:16:24.798Z,8.51
2023-01-13T02:17:45.762Z,8.44
2023-01-13T02:19:16.746Z,8.47
2023-01-13T02:20:56.127Z,8.55
2023-01-13T02:22:32.172Z,8.38
2023-01-13T02:24:26.494Z,8.40
2023-01-13T02:25:40.137Z,8.35
2023-01-13T02:27:14.523Z,8.28
2023-01-13T02:28:34.872Z,8.38
2023-01-13T02:30:22.991Z,8.45
2023-01-13T02:31:42.686Z,8.47
2023-01-13T02:33:11.993Z,8.43
2023-01-13T02:34:17.240Z,8.29
2023-01-13T02:35:31.534Z,8.38
2023-01-13T02:36:48.765Z,8.31
2023-01-13T02:37:51.596Z,8.35
2023-01-13T02:39:18.068Z,8.32
2023-01-13T02:40:29.252Z,8.35
2023-01-13T02:42:23.219Z,8.33
2023-01-13T02:43:58.419Z,8.30
2023-01-13T02:45:28.205Z,8.38
2023-01-13T02:46:33.130Z,8.35
2023-01-13T02:47:39.198Z,8.31
2023-01-13T02:48:44.608Z,8.35
2023-01-13T02:49:54.640Z,8.39
2023-01-13T02:51:02.557Z,8.34
2023-01-13T02:52:19.473Z,8.33
2023-01-13T02:53:30.553Z,8.24
2023-01-13T02:54:35.410Z,8.36
2023-01-13T02:55:42.683Z,8.35
2023-01-13T02:56:48.692Z,8.27
2023-01-13T02:57:52.792Z,8.25
2023-01-13T02:58:56.203Z,8.24
2023-01-13T02:59:57.854Z,8.17
2023-01-13T03:00:59.340Z,8.22
2023-01-13T03:02:04.044Z,8.23
2023-01-13T03:03:05.576Z,8.17
2023-01-13T03:04:14.983Z,8.15
2023-01-13T03:05:17.437Z,8.05
2023-01-13T03:06:33.832Z,8.10
2023-01-13T03:08:01.363Z,8.03
2023-01-13T03:09:15.167Z,7.95
2023-01-13T03:10:33.350Z,7.90
2023-01-13T03:11:47.499Z,7.76
2023-01-13T03:13:24.421Z,7.87
2023-01-13T03:14:56.843Z,7.97
2023-01-13T03:16:24.007Z,7.97
2023-01-13T03:17:44.049Z,7.92
2023-01-13T03:18:45.318Z,7.97
2023-01-13T03:20:12.356Z,7.86
2023-01-13T03:21:39.799Z,7.88
2023-01-13T03:23:03.164Z,7.84
2023-01-13T03:24:12.787Z,7.80
2023-01-13T03:25:31.181Z,7.73
2023-01-13T03:26:43.923Z,7.79
2023-01-13T03:27:57.888Z,7.97
2023-01-13T03:29:08.405Z,8.04
2023-01-13T03:30:19.319Z,8.06
2023-01-13T03:31:30.143Z,7.96
2023-01-13T03:32:38.993Z,8.14
2023-01-13T03:33:57.434Z,8.13
2023-01-13T03:35:11.251Z,8.12
2023-01-13T03:36:16.668Z,8.09
2023-01-13T03:37:23.239Z,8.13
2023-01-13T03:38:36.941Z,8.09
2023-01-13T03:39:43.246Z,8.08
2023-01-13T03:40:54.646Z,7.99
2023-01-13T03:42:02.240Z,7.97
2023-01-13T03:43:29.160Z,7.93
2023-01-13T03:44:35.872Z,7.87
2023-01-13T03:45:39.841Z,7.99
2023-01-13T03:46:48.053Z,7.97
2023-01-13T03:47:54.925Z,7.87
2023-01-13T03:48:58.764Z,7.87
2023-01-13T03:50:18.713Z,8.01
2023-01-13T03:51:24.532Z,7.90
2023-01-13T03:52:33.736Z,7.85
2023-01-13T03:53:40.667Z,7.83
2023-01-13T03:54:48.259Z,7.81
2023-01-13T03:55:59.208Z,7.87
2023-01-13T03:57:06.967Z,7.88
2023-01-13T03:58:17.028Z,7.84
2023-01-13T03:59:25.742Z,7.84
2023-01-13T04:00:32.360Z,7.73
2023-01-13T04:01:53.001Z,7.80
2023-01-13T04:03:09.479Z,7.74
2023-01-13T04:04:21.582Z,7.89
2023-01-13T04:05:23.576Z,7.84
2023-01-13T04:06:27.886Z,7.83
2023-01-13T04:07:47.662Z,7.78
2023-01-13T04:08:55.782Z,7.76
2023-01-13T04:10:02.133Z,7.80
2023-01-13T04:11:08.133Z,7.83
2023-01-13T04:12:26.452Z,7.79
2023-01-13T04:13:32.301Z,7.87
2023-01-13T04:14:35.565Z,7.88
2023-01-13T04:15:42.648Z,7.90
2023-01-13T04:16:44.244Z,7.86
2023-01-13T04:17:45.687Z,7.83
2023-01-13T04:18:49.982Z,7.85
2023-01-13T04:19:51.393Z,7.88
2023-01-13T04:20:56.079Z,7.82
2023-01-13T04:21:57.554Z,7.90
2023-01-13T04:22:59.068Z,7.86
2023-01-13T04:24:00.527Z,7.86
2023-01-13T04:25:02.175Z,7.77
2023-01-13T04:26:03.624Z,7.82
2023-01-13T04:27:06.115Z,7.75
2023-01-13T04:28:07.860Z,7.72
2023-01-13T04:29:09.334Z,7.67
2023-01-13T04:30:11.299Z,7.66
2023-01-13T04:31:12.833Z,7.76
2023-01-13T04:32:14.287Z,7.78
2023-01-13T04:33:18.270Z,7.89
2023-01-13T04:34:19.760Z,7.74
2023-01-13T04:35:21.232Z,7.78
2023-01-13T04:36:27.397Z,7.73
2023-01-13T04:37:28.858Z,7.59
2023-01-13T04:38:30.233Z,7.50
2023-01-13T04:39:31.742Z,7.40
2023-01-13T04:40:33.183Z,7.34
2023-01-13T04:41:53.286Z,7.54
2023-01-13T04:42:54.772Z,7.75
2023-01-13T04:43:56.212Z,7.69
2023-01-13T04:44:57.634Z,7.86
2023-01-13T04:45:59.104Z,7.79
2023-01-13T04:47:02.322Z,7.75
2023-01-13T04:48:03.964Z,7.80
2023-01-13T04:49:05.404Z,7.78
2023-01-13T04:50:07.209Z,7.81
2023-01-13T04:51:08.629Z,7.83
2023-01-13T04:52:10.044Z,7.85
2023-01-13T04:53:11.632Z,7.75
2023-01-13T04:54:13.183Z,7.76
2023-01-13T04:55:16.000Z,7.78
2023-01-13T04:56:17.735Z,7.77
2023-01-13T04:57:19.180Z,7.78
2023-01-13T04:58:21.033Z,7.80
2023-01-13T04:59:22.433Z,7.86
2023-01-13T05:00:23.905Z,7.81
2023-01-13T05:01:25.488Z,7.79
2023-01-13T05:02:26.956Z,7.78
2023-01-13T05:03:28.360Z,7.88
2023-01-13T05:04:29.847Z,7.84
2023-01-13T05:05:31.525Z,7.83
2023-01-13T05:06:33.319Z,7.84
2023-01-13T05:07:34.793Z,7.81
2023-01-13T05:08:36.241Z,7.83
2023-01-13T05:09:37.708Z,7.83
2023-01-13T05:10:39.239Z,7.97
2023-01-13T05:11:59.059Z,8.01
2023-01-13T05:13:18.922Z,8.03
2023-01-13T05:14:38.738Z,7.99
2023-01-13T05:16:00.580Z,7.96
2023-01-13T05:17:03.127Z,7.99
2023-01-13T05:18:05.126Z,7.97
2023-01-13T05:19:06.482Z,7.98
2023-01-13T05:20:09.232Z,8.03
2023-01-13T05:21:30.587Z,7.92
2023-01-13T05:22:50.609Z,7.94
2023-01-13T05:24:10.405Z,8.02
2023-01-13T05:25:28.109Z,7.94
2023-01-13T05:26:29.511Z,7.94
2023-01-13T05:27:31.647Z,7.96
2023-01-13T05:28:33.878Z,8.02
2023-01-13T05:29:35.293Z,8.00
2023-01-13T05:30:42.218Z,8.06
2023-01-13T05:31:43.652Z,8.04
2023-01-13T05:32:45.077Z,8.07
2023-01-13T05:33:46.517Z,8.01
2023-01-13T05:34:48.040Z,8.01
2023-01-13T05:35:49.699Z,8.01
2023-01-13T05:36:51.127Z,7.99
2023-01-13T05:37:54.811Z,8.03
2023-01-13T05:38:56.227Z,7.98
2023-01-13T05:40:16.232Z,8.02
2023-01-13T05:41:35.951Z,8.15
2023-01-13T05:42:56.717Z,8.12
2023-01-13T05:43:58.023Z,8.09
2023-01-13T05:44:59.407Z,8.12
2023-01-13T05:46:09.129Z,8.11
2023-01-13T05:47:10.653Z,8.16
2023-01-13T05:48:12.429Z,8.28
2023-01-13T05:49:13.827Z,8.23
2023-01-13T05:50:15.742Z,8.24
2023-01-13T05:51:17.144Z,8.42
2023-01-13T05:52:18.568Z,8.38
2023-01-13T05:53:21.379Z,8.36
2023-01-13T05:54:22.766Z,8.31
2023-01-13T05:55:24.192Z,8.31
2023-01-13T05:56:25.645Z,8.27
2023-01-13T05:57:27.158Z,8.57
2023-01-13T05:58:28.634Z,8.63
2023-01-13T05:59:30.069Z,8.56
2023-01-13T06:00:31.536Z,8.61
2023-01-13T06:01:33.282Z,8.70
2023-01-13T06:02:34.801Z,8.64
2023-01-13T06:03:36.896Z,8.61
2023-01-13T06:04:38.368Z,8.67
2023-01-13T06:05:40.029Z,8.63
2023-01-13T06:06:43.404Z,8.65
2023-01-13T06:07:44.832Z,8.69
2023-01-13T06:08:46.264Z,8.68
2023-01-13T06:09:47.675Z,8.79
2023-01-13T06:10:49.097Z,8.75
2023-01-13T06:11:50.539Z,8.76
2023-01-13T06:12:52.654Z,8.66
2023-01-13T06:13:54.125Z,8.77
2023-01-13T06:14:55.554Z,8.74
2023-01-13T06:16:00.145Z,8.69
2023-01-13T06:17:01.588Z,8.66
2023-01-13T06:18:04.572Z,8.62
2023-01-13T06:19:12.821Z,8.54
2023-01-13T06:20:15.884Z,8.56
2023-01-13T06:21:17.378Z,8.61
2023-01-13T06:22:24.065Z,8.52
2023-01-13T06:23:26.180Z,8.64
2023-01-13T06:24:28.426Z,8.46
2023-01-13T06:26:05.400Z,8.57
2023-01-13T06:27:08.440Z,8.67
2023-01-13T06:28:10.601Z,8.72
2023-01-13T06:29:14.955Z,8.70
2023-01-13T06:30:17.417Z,8.76
2023-01-13T06:31:19.935Z,8.71
2023-01-13T06:32:28.905Z,8.64
2023-01-13T06:33:36.705Z,8.60
2023-01-13T06:34:40.059Z,8.63
2023-01-13T06:35:46.326Z,8.65
2023-01-13T06:36:53.636Z,8.67
2023-01-13T06:37:57.808Z,8.51
2023-01-13T06:39:02.663Z,8.54
2023-01-13T06:40:06.565Z,8.49
2023-01-13T06:41:08.869Z,8.49
2023-01-13T06:42:28.659Z,8.52
2023-01-13T06:43:30.066Z,8.42
2023-01-13T06:44:31.503Z,8.41
2023-01-13T06:45:33.199Z,8.36
2023-01-13T06:46:35.602Z,8.36
2023-01-13T06:47:37.211Z,8.41
2023-01-13T06:48:38.670Z,8.53
2023-01-13T06:49:40.099Z,8.41
2023-01-13T06:50:42.270Z,8.46
2023-01-13T06:51:43.891Z,8.33
2023-01-13T06:52:45.368Z,8.33
2023-01-13T06:53:46.745Z,8.27
2023-01-13T06:54:48.157Z,8.28
2023-01-13T06:55:49.595Z,8.31
2023-01-13T06:56:51.055Z,8.25
2023-01-13T06:57:55.095Z,8.31
2023-01-13T06:58:56.563Z,8.34
2023-01-13T06:59:57.965Z,8.42
2023-01-13T07:01:01.109Z,8.42
2023-01-13T07:02:03.256Z,8.61
2023-01-13T07:03:08.931Z,8.57
2023-01-13T07:04:10.363Z,8.65
2023-01-13T07:05:12.031Z,8.53
2023-01-13T07:06:13.485Z,8.63
2023-01-13T07:07:14.936Z,8.61
2023-01-13T07:08:16.422Z,8.65
2023-01-13T07:09:17.910Z,8.68
2023-01-13T07:10:22.317Z,8.68
2023-01-13T07:11:24.886Z,8.62
2023-01-13T07:12:26.317Z,8.60
2023-01-13T07:13:46.298Z,8.50
2023-01-13T07:15:06.124Z,8.57
2023-01-13T07:16:09.120Z,8.42
2023-01-13T07:17:10.642Z,8.58
2023-01-13T07:18:12.067Z,8.52
2023-01-13T07:19:13.564Z,8.45
2023-01-13T07:20:16.735Z,8.55
2023-01-13T07:21:19.933Z,8.48
2023-01-13T07:22:21.413Z,8.49
2023-01-13T07:23:23.432Z,8.50
2023-01-13T07:24:24.938Z,8.42
2023-01-13T07:25:26.416Z,8.38
2023-01-13T07:26:27.873Z,8.38
2023-01-13T07:27:29.333Z,8.34
2023-01-13T07:28:31.556Z,8.28
2023-01-13T07:29:32.956Z,8.30
2023-01-13T07:30:34.379Z,8.35
2023-01-13T07:31:36.488Z,8.24
2023-01-13T07:32:38.043Z,8.31
2023-01-13T07:33:39.702Z,8.32
2023-01-13T07:34:41.269Z,8.41
2023-01-13T07:35:42.683Z,8.40
2023-01-13T07:36:44.118Z,8.36
2023-01-13T07:37:45.615Z,8.33
2023-01-13T07:38:47.042Z,8.35
2023-01-13T07:39:50.142Z,8.33
2023-01-13T07:40:51.625Z,8.30
2023-01-13T07:42:11.580Z,8.29
2023-01-13T07:43:42.059Z,8.36
2023-01-13T07:44:43.511Z,8.29
2023-01-13T07:45:44.947Z,8.23
2023-01-13T07:46:46.449Z,8.22
2023-01-13T07:47:51.302Z,8.10
2023-01-13T07:48:52.735Z,8.01
2023-01-13T07:49:54.137Z,7.93
2023-01-13T07:50:55.766Z,7.91
2023-01-13T07:51:57.535Z,7.96
2023-01-13T07:52:59.241Z,7.87
2023-01-13T07:54:00.719Z,7.81
2023-01-13T07:55:02.191Z,7.81
2023-01-13T07:56:05.880Z,7.78
2023-01-13T07:57:07.517Z,7.88
2023-01-13T07:58:10.000Z,7.87
2023-01-13T07:59:11.555Z,7.88
2023-01-13T08:00:13.387Z,7.92
2023-01-13T08:01:16.654Z,7.94
2023-01-13T08:02:18.341Z,7.93
2023-01-13T08:03:20.475Z,7.90
2023-01-13T08:04:22.110Z,7.88
2023-01-13T08:05:23.517Z,7.87
2023-01-13T08:06:26.191Z,7.88
2023-01-13T08:07:27.632Z,7.99
2023-01-13T08:08:29.087Z,7.89
2023-01-13T08:09:30.533Z,7.95
2023-01-13T08:10:32.021Z,7.81
2023-01-13T08:11:33.441Z,7.80
2023-01-13T08:12:56.967Z,7.74
2023-01-13T08:13:58.801Z,7.76
2023-01-13T08:15:00.242Z,7.70
2023-01-13T08:16:07.355Z,7.78
2023-01-13T08:17:09.760Z,7.79
2023-01-13T08:18:11.874Z,7.83
2023-01-13T08:19:13.363Z,7.78
2023-01-13T08:20:15.012Z,7.72
2023-01-13T08:21:16.766Z,7.73
2023-01-13T08:22:18.222Z,7.82
2023-01-13T08:23:21.483Z,7.79
2023-01-13T08:24:25.827Z,7.79
2023-01-13T08:25:28.917Z,7.81
2023-01-13T08:26:30.371Z,7.81
2023-01-13T08:27:31.882Z,7.83
2023-01-13T08:28:33.522Z,7.79
2023-01-13T08:29:34.953Z,7.82
2023-01-13T08:30:36.660Z,7.84
2023-01-13T08:31:38.076Z,7.95
2023-01-13T08:32:39.487Z,7.93
2023-01-13T08:33:41.677Z,7.95
2023-01-13T08:34:43.107Z,8.00
2023-01-13T08:35:44.515Z,8.05
2023-01-13T08:36:45.944Z,8.11
2023-01-13T08:37:48.298Z,8.17
2023-01-13T08:38:49.738Z,8.17
2023-01-13T08:39:51.149Z,8.20
2023-01-13T08:40:52.928Z,8.32
2023-01-13T08:41:58.348Z,8.29
2023-01-13T08:43:00.730Z,8.34
2023-01-13T08:44:02.169Z,8.31
2023-01-13T08:45:04.533Z,8.23
2023-01-13T08:46:06.244Z,8.29
2023-01-13T08:47:07.701Z,8.29
2023-01-13T08:48:09.176Z,8.27
2023-01-13T08:49:10.751Z,8.38
2023-01-13T08:50:12.489Z,8.38
2023-01-13T08:51:14.046Z,8.34
2023-01-13T08:52:16.150Z,8.34
2023-01-13T08:53:17.583Z,8.38
2023-01-13T08:54:19.449Z,8.34
2023-01-13T08:55:21.009Z,8.32
2023-01-13T08:56:22.485Z,8.31
2023-01-13T08:57:24.127Z,8.33
2023-01-13T08:58:25.777Z,8.40
2023-01-13T08:59:27.235Z,8.34
2023-01-13T09:00:31.027Z,8.34
2023-01-13T09:01:33.899Z,8.38
2023-01-13T09:02:35.674Z,8.34
2023-01-13T09:03:37.179Z,8.29
2023-01-13T09:04:39.041Z,8.24
2023-01-13T09:05:40.589Z,8.20
2023-01-13T09:06:42.158Z,8.20
2023-01-13T09:07:43.602Z,8.13
2023-01-13T09:08:45.551Z,8.11
2023-01-13T09:09:47.031Z,8.10
2023-01-13T09:10:48.496Z,8.01
2023-01-13T09:12:09.841Z,8.01
2023-01-13T09:13:13.888Z,7.99
2023-01-13T09:14:20.993Z,7.91
2023-01-13T09:15:22.468Z,7.92
2023-01-13T09:16:23.895Z,7.87
2023-01-13T09:17:25.367Z,7.83
2023-01-13T09:18:26.773Z,7.85
2023-01-13T09:19:29.153Z,7.86
2023-01-13T09:20:30.607Z,7.81
2023-01-13T09:21:32.040Z,7.77
2023-01-13T09:22:36.260Z,7.82
2023-01-13T09:23:37.667Z,7.82
2023-01-13T09:24:39.206Z,7.82
2023-01-13T09:25:40.697Z,7.87
2023-01-13T09:26:42.124Z,7.90
2023-01-13T09:27:43.555Z,7.85
2023-01-13T09:28:44.965Z,7.95
2023-01-13T09:29:46.443Z,8.02
2023-01-13T09:30:47.893Z,7.98
2023-01-13T09:31:49.344Z,7.97
2023-01-13T09:33:10.706Z,8.01
2023-01-13T09:34:37.015Z,8.06
2023-01-13T09:35:38.449Z,7.99
2023-01-13T09:36:39.874Z,8.00
2023-01-13T09:37:41.636Z,7.99
2023-01-13T09:38:43.079Z,7.97
2023-01-13T09:39:44.515Z,7.98
2023-01-13T09:40:48.942Z,7.85
2023-01-13T09:42:12.941Z,7.82
2023-01-13T09:43:55.552Z,7.73
2023-01-13T09:45:04.845Z,7.75
2023-01-13T09:46:46.935Z,7.70
2023-01-13T09:48:01.767Z,7.63
2023-01-13T09:49:04.295Z,7.62
2023-01-13T09:50:34.169Z,7.58
2023-01-13T09:51:41.534Z,7.59
2023-01-13T09:52:43.357Z,7.63
2023-01-13T09:54:00.562Z,7.61
2023-01-13T09:55:14.257Z,7.51
2023-01-13T09:56:15.667Z,7.44
2023-01-13T09:57:19.263Z,7.33
2023-01-13T09:58:21.061Z,7.33
2023-01-13T09:59:32.556Z,7.31
2023-01-13T10:00:44.833Z,7.22
2023-01-13T10:02:11.758Z,7.19
2023-01-13T10:03:19.584Z,7.27
2023-01-13T10:04:21.249Z,7.24
2023-01-13T10:05:34.594Z,7.27
2023-01-13T10:06:42.138Z,7.35
2023-01-13T10:07:50.449Z,7.28
2023-01-13T10:08:51.910Z,7.20
2023-01-13T10:09:55.497Z,7.19
2023-01-13T10:11:33.024Z,7.08
2023-01-13T10:12:53.146Z,7.08
2023-01-13T10:14:00.900Z,7.06
2023-01-13T10:15:02.493Z,7.08
2023-01-13T10:16:30.979Z,7.05
2023-01-13T10:17:40.013Z,6.95
2023-01-13T10:19:03.504Z,7.07
2023-01-13T10:20:24.750Z,7.00
2023-01-13T10:21:31.931Z,7.04
2023-01-13T10:22:47.114Z,7.14
2023-01-13T10:23:48.543Z,7.10
2023-01-13T10:25:28.250Z,7.27
2023-01-13T10:26:52.705Z,7.42
2023-01-13T10:28:01.488Z,7.32
2023-01-13T10:29:03.151Z,7.28
2023-01-13T10:30:35.836Z,7.40
2023-01-13T10:31:37.432Z,7.39
2023-01-13T10:32:42.827Z,7.43
2023-01-13T10:33:44.289Z,7.50
2023-01-13T10:34:51.411Z,7.55
2023-01-13T10:36:02.087Z,7.59
2023-01-13T10:37:09.144Z,7.61
2023-01-13T10:38:20.368Z,7.72
2023-01-13T10:39:21.872Z,7.70
2023-01-13T10:40:23.401Z,7.71
2023-01-13T10:41:27.479Z,7.77
2023-01-13T10:42:29.127Z,7.74
2023-01-13T10:43:31.251Z,7.79
2023-01-13T10:44:46.592Z,7.81
2023-01-13T10:46:12.028Z,7.85
2023-01-13T10:47:27.187Z,7.88
2023-01-13T10:48:55.965Z,7.94
2023-01-13T10:50:12.183Z,7.98
2023-01-13T10:51:24.869Z,7.98
2023-01-13T10:52:33.342Z,7.98
2023-01-13T10:53:45.648Z,8.00
2023-01-13T10:54:52.510Z,7.94
2023-01-13T10:56:03.621Z,8.00
2023-01-13T10:57:23.977Z,7.99
2023-01-13T10:58:25.832Z,7.97
2023-01-13T10:59:27.408Z,7.99
2023-01-13T11:00:34.863Z,7.99
2023-01-13T11:01:37.000Z,8.03
2023-01-13T11:02:38.689Z,8.07
2023-01-13T11:03:42.935Z,8.13
2023-01-13T11:04:57.884Z,8.15
2023-01-13T11:06:00.702Z,8.24
2023-01-13T11:07:04.814Z,8.26
2023-01-13T11:08:18.302Z,8.26
2023-01-13T11:09:20.944Z,8.33
2023-01-13T11:10:27.294Z,8.41
2023-01-13T11:11:43.206Z,8.42
2023-01-13T11:13:16.612Z,8.49
2023-01-13T11:14:41.681Z,8.48
2023-01-13T11:15:58.315Z,8.53
2023-01-13T11:17:18.081Z,8.57
2023-01-13T11:18:43.526Z,8.51
2023-01-13T11:19:52.266Z,8.49
2023-01-13T11:20:57.104Z,8.38
2023-01-13T11:22:07.346Z,8.38
2023-01-13T11:23:27.221Z,8.37
2023-01-13T11:24:31.451Z,8.32
2023-01-13T11:25:43.063Z,8.28
2023-01-13T11:26:51.363Z,8.32
2023-01-13T11:28:00.691Z,8.38
2023-01-13T11:29:41.231Z,8.42
2023-01-13T11:30:45.417Z,8.41
2023-01-13T11:31:52.105Z,8.39
2023-01-13T11:33:15.169Z,8.33
2023-01-13T11:34:25.821Z,8.38
2023-01-13T11:35:29.580Z,8.32
2023-01-13T11:36:40.182Z,8.26
2023-01-13T11:37:49.374Z,8.34
2023-01-13T11:38:52.965Z,8.38
2023-01-13T11:40:15.959Z,8.43
2023-01-13T11:41:20.416Z,8.44
2023-01-13T11:42:46.680Z,8.40
2023-01-13T11:43:52.056Z,8.38
2023-01-13T11:45:06.110Z,8.36
2023-01-13T11:46:09.764Z,8.33
2023-01-13T11:47:12.717Z,8.38
2023-01-13T11:48:17.456Z,8.38
2023-01-13T11:49:32.668Z,8.36
2023-01-13T11:50:48.056Z,8.33
2023-01-13T11:52:00.554Z,8.40
2023-01-13T11:53:10.396Z,8.34
2023-01-13T11:54:26.332Z,8.43
2023-01-13T11:55:34.923Z,8.43
2023-01-13T11:57:02.048Z,8.41
2023-01-13T11:58:25.155Z,8.40
2023-01-13T11:59:55.676Z,8.41
2023-01-13T12:01:25.355Z,8.44
2023-01-13T12:02:51.554Z,8.48
2023-01-13T12:04:08.236Z,8.43
2023-01-13T12:05:31.636Z,8.39
2023-01-13T12:06:39.955Z,8.42
2023-01-13T12:08:20.712Z,8.45
2023-01-13T12:09:33.294Z,8.46
2023-01-13T12:11:05.295Z,8.50
2023-01-13T12:12:27.335Z,8.54
2023-01-13T12:13:53.474Z,8.60
2023-01-13T12:15:04.086Z,8.56
2023-01-13T12:16:30.535Z,8.53
2023-01-13T12:18:06.515Z,8.54
2023-01-13T12:19:20.041Z,8.59
2023-01-13T12:20:49.701Z,8.50
2023-01-13T12:22:14.869Z,8.56
2023-01-13T12:23:32.324Z,8.57
2023-01-13T12:24:58.946Z,8.54
2023-01-13T12:26:07.789Z,8.57
2023-01-13T12:27:32.031Z,8.54
2023-01-13T12:29:12.447Z,8.54
2023-01-13T12:30:27.516Z,8.55
2023-01-13T12:31:30.605Z,8.53
2023-01-13T12:32:38.577Z,8.54
2023-01-13T12:33:52.249Z,8.53
2023-01-13T12:35:05.676Z,8.60
2023-01-13T12:36:35.195Z,8.60
2023-01-13T12:37:45.533Z,8.56
2023-01-13T12:38:56.981Z,8.59
2023-01-13T12:40:15.746Z,8.55
2023-01-13T12:41:20.182Z,8.66
2023-01-13T12:43:04.909Z,8.52
2023-01-13T12:44:17.008Z,8.59
2023-01-13T12:45:23.111Z,8.67
2023-01-13T12:46:24.577Z,8.62
2023-01-13T12:47:52.859Z,8.67
2023-01-13T12:48:55.289Z,8.59
2023-01-13T12:50:22.693Z,8.65
2023-01-13T12:51:28.280Z,8.70
2023-01-13T12:52:44.169Z,8.74
2023-01-13T12:53:45.727Z,8.63
2023-01-13T12:54:47.308Z,8.64
2023-01-13T12:55:53.181Z,8.72
2023-01-13T12:56:55.066Z,8.74
2023-01-13T12:58:15.291Z,8.82
2023-01-13T12:59:16.762Z,8.76
2023-01-13T13:00:18.711Z,8.69
2023-01-13T13:01:33.994Z,8.68
2023-01-13T13:02:38.099Z,8.74
2023-01-13T13:03:40.239Z,8.77
2023-01-13T13:04:44.410Z,8.82
2023-01-13T13:06:07.677Z,8.79
2023-01-13T13:07:13.911Z,8.73
2023-01-13T13:08:58.439Z,8.76
2023-01-13T13:10:13.958Z,8.83
2023-01-13T13:11:38.035Z,8.81
2023-01-13T13:13:01.086Z,8.73
2023-01-13T13:14:38.099Z,8.81
2023-01-13T13:15:39.761Z,8.75
2023-01-13T13:16:47.535Z,8.76
2023-01-13T13:18:03.531Z,8.75
2023-01-13T13:19:20.216Z,8.78
2023-01-13T13:21:03.643Z,8.76
2023-01-13T13:22:18.982Z,8.81
2023-01-13T13:23:52.791Z,8.92
2023-01-13T13:24:54.344Z,8.83
2023-01-13T13:26:20.512Z,8.76
2023-01-13T13:27:30.201Z,8.75
2023-01-13T13:28:39.151Z,8.76
2023-01-13T13:29:52.673Z,8.68
2023-01-13T13:31:17.142Z,8.67
2023-01-13T13:32:41.866Z,8.64
2023-01-13T13:34:11.685Z,8.47
2023-01-13T13:35:40.071Z,8.52
2023-01-13T13:37:03.491Z,8.47
2023-01-13T13:38:27.630Z,8.47
2023-01-13T13:39:49.680Z,8.32
2023-01-13T13:41:10.026Z,8.38
2023-01-13T13:42:54.713Z,8.36
2023-01-13T13:44:21.321Z,8.43
2023-01-13T13:45:43.897Z,8.53
2023-01-13T13:46:47.224Z,8.56
2023-01-13T13:47:48.899Z,8.49
2023-01-13T13:48:54.467Z,8.49
2023-01-13T13:49:56.579Z,8.51
2023-01-13T13:51:04.652Z,8.52
2023-01-13T13:52:10.871Z,8.53
2023-01-13T13:53:12.583Z,8.60
2023-01-13T13:54:18.477Z,8.48
2023-01-13T13:55:28.562Z,8.43
2023-01-13T13:56:43.177Z,8.50
2023-01-13T13:57:50.980Z,8.54
2023-01-13T13:58:53.399Z,8.44
2023-01-13T13:59:57.655Z,8.21
2023-01-13T14:01:00.792Z,8.42
2023-01-13T14:02:03.949Z,8.36
2023-01-13T14:03:28.681Z,8.18
2023-01-13T14:04:40.558Z,8.14
2023-01-13T14:05:56.578Z,8.13
2023-01-13T14:06:59.390Z,8.13
2023-01-13T14:08:02.291Z,8.06
2023-01-13T14:09:04.317Z,7.97
2023-01-13T14:10:08.655Z,8.00
2023-01-13T14:11:27.673Z,8.01
2023-01-13T14:12:30.240Z,7.93
2023-01-13T14:13:32.091Z,7.97
2023-01-13T14:14:33.564Z,8.03
2023-01-13T14:15:38.629Z,7.94
2023-01-13T14:16:41.023Z,7.97
2023-01-13T14:17:42.476Z,8.04
2023-01-13T14:18:48.060Z,8.02
2023-01-13T14:20:13.109Z,8.03
2023-01-13T14:21:29.247Z,8.11
2023-01-13T14:22:32.423Z,8.13
2023-01-13T14:23:34.071Z,8.21
2023-01-13T14:24:46.382Z,8.23
2023-01-13T14:25:51.877Z,8.31
2023-01-13T14:26:53.404Z,8.20
2023-01-13T14:27:57.095Z,8.24
2023-01-13T14:29:00.946Z,8.26
2023-01-13T14:30:02.931Z,8.26
2023-01-13T14:31:04.985Z,8.27
2023-01-13T14:32:07.456Z,8.17
2023-01-13T14:33:17.433Z,8.29
2023-01-13T14:34:30.584Z,8.29
2023-01-13T14:35:34.401Z,8.22
2023-01-13T14:36:37.627Z,8.30
2023-01-13T14:37:41.801Z,8.21
2023-01-13T14:38:46.411Z,8.23
2023-01-13T14:39:47.842Z,8.17
2023-01-13T14:40:49.440Z,8.23
2023-01-13T14:41:51.078Z,8.23
2023-01-13T14:43:03.177Z,8.05
2023-01-13T14:44:26.946Z,8.15
2023-01-13T14:45:29.769Z,8.12
2023-01-13T14:46:45.197Z,8.06
2023-01-13T14:47:53.077Z,7.94
2023-01-13T14:49:04.181Z,7.80
2023-01-13T14:50:05.910Z,7.65
2023-01-13T14:51:11.481Z,7.62
2023-01-13T14:52:17.680Z,7.64
2023-01-13T14:53:28.872Z,7.66
2023-01-13T14:54:48.951Z,7.61
2023-01-13T14:55:50.245Z,7.52
2023-01-13T14:56:53.850Z,7.59
2023-01-13T14:58:23.311Z,7.51
2023-01-13T14:59:47.399Z,7.34
2023-01-13T15:01:12.859Z,7.19
2023-01-13T15:02:29.675Z,7.28
2023-01-13T15:03:41.945Z,7.30
2023-01-13T15:04:43.916Z,7.14